sensor_id;sensor_type;location;lat;lon;timestamp;pressure;altitude;pressure_sealevel;temperature;humidity
15050;BME280;7622;42.724;23.250;2023-04-04T00:00:46;93293.13;;;8.41;100.00
15050;BME280;7622;42.724;23.250;2023-04-04T00:03:12;93290.84;;;8.46;100.00
15050;BME280;7622;42.724;23.250;2023-04-04T00:05:39;93281.88;;;8.64;100.00
15050;BME280;7622;42.724;23.250;2023-04-04T00:08:07;93280.47;;;8.62;100.00
15050;BME280;7622;42.724;23.250;2023-04-04T00:10:34;93282.75;;;8.57;100.00
15050;BME280;7622;42.724;23.250;2023-04-04T00:13:01;93277.56;;;8.57;100.00
15050;BME280;7622;42.724;23.250;2023-04-04T00:15:29;93254.31;;;8.41;100.00
15050;BME280;7622;42.724;23.250;2023-04-04T00:17:57;93277.88;;;8.54;100.00
15050;BME280;7622;42.724;23.250;2023-04-04T00:20:24;93284.38;;;8.42;100.00
15050;BME280;7622;42.724;23.250;2023-04-04T00:22:50;93267.56;;;8.29;100.00
15050;BME280;7622;42.724;23.250;2023-04-04T00:25:18;93269.19;;;8.14;100.00
15050;BME280;7622;42.724;23.250;2023-04-04T00:27:46;93265.28;;;8.26;100.00
15050;BME280;7622;42.724;23.250;2023-04-04T00:30:13;93270.66;;;8.33;100.00
15050;BME280;7622;42.724;23.250;2023-04-04T00:32:40;93266.44;;;8.40;100.00
15050;BME280;7622;42.724;23.250;2023-04-04T00:35:07;93262.72;;;8.35;100.00
15050;BME280;7622;42.724;23.250;2023-04-04T00:37:34;93253.00;;;8.45;100.00
15050;BME280;7622;42.724;23.250;2023-04-04T00:40:02;93257.19;;;8.46;100.00
15050;BME280;7622;42.724;23.250;2023-04-04T00:42:32;93251.22;;;8.45;100.00
15050;BME280;7622;42.724;23.250;2023-04-04T00:44:59;93248.47;;;8.47;100.00
15050;BME280;7622;42.724;23.250;2023-04-04T00:47:28;93247.94;;;8.59;100.00
15050;BME280;7622;42.724;23.250;2023-04-04T00:49:56;93252.16;;;8.60;100.00
15050;BME280;7622;42.724;23.250;2023-04-04T00:52:23;93240.97;;;8.68;100.00
15050;BME280;7622;42.724;23.250;2023-04-04T00:54:50;93239.06;;;8.62;100.00
15050;BME280;7622;42.724;23.250;2023-04-04T00:57:17;93202.19;;;8.52;100.00
15050;BME280;7622;42.724;23.250;2023-04-04T00:59:46;93235.50;;;8.63;100.00
15050;BME280;7622;42.724;23.250;2023-04-04T01:02:13;93240.31;;;8.66;100.00
15050;BME280;7622;42.724;23.250;2023-04-04T01:04:40;93241.16;;;8.58;100.00
15050;BME280;7622;42.724;23.250;2023-04-04T01:07:07;93249.94;;;8.49;100.00
15050;BME280;7622;42.724;23.250;2023-04-04T01:09:34;93249.75;;;8.51;100.00
15050;BME280;7622;42.724;23.250;2023-04-04T01:12:01;93253.66;;;8.47;100.00
15050;BME280;7622;42.724;23.250;2023-04-04T01:14:28;93257.16;;;8.62;100.00
15050;BME280;7622;42.724;23.250;2023-04-04T01:16:57;93262.66;;;8.59;100.00
15050;BME280;7622;42.724;23.250;2023-04-04T01:19:29;93263.94;;;8.71;100.00
15050;BME280;7622;42.724;23.250;2023-04-04T01:21:58;93264.13;;;8.61;100.00
15050;BME280;7622;42.724;23.250;2023-04-04T01:24:27;93259.75;;;8.62;100.00
15050;BME280;7622;42.724;23.250;2023-04-04T01:26:59;93261.50;;;8.69;100.00
15050;BME280;7622;42.724;23.250;2023-04-04T01:29:26;93260.56;;;8.62;100.00
15050;BME280;7622;42.724;23.250;2023-04-04T01:31:56;93254.75;;;8.60;100.00
15050;BME280;7622;42.724;23.250;2023-04-04T01:34:28;93262.66;;;8.59;100.00
15050;BME280;7622;42.724;23.250;2023-04-04T01:37:02;93256.78;;;8.73;100.00
15050;BME280;7622;42.724;23.250;2023-04-04T01:39:34;93253.91;;;8.68;100.00
15050;BME280;7622;42.724;23.250;2023-04-04T01:42:04;93252.91;;;8.77;100.00
15050;BME280;7622;42.724;23.250;2023-04-04T01:44:32;93243.06;;;8.64;100.00
15050;BME280;7622;42.724;23.250;2023-04-04T01:47:00;93244.47;;;8.83;100.00
15050;BME280;7622;42.724;23.250;2023-04-04T01:49:27;93228.28;;;8.81;100.00
15050;BME280;7622;42.724;23.250;2023-04-04T01:51:54;93224.47;;;8.69;100.00
15050;BME280;7622;42.724;23.250;2023-04-04T01:54:21;93218.44;;;8.85;100.00
15050;BME280;7622;42.724;23.250;2023-04-04T01:56:48;93217.88;;;8.97;100.00
15050;BME280;7622;42.724;23.250;2023-04-04T01:59:17;93208.13;;;8.99;100.00
15050;BME280;7622;42.724;23.250;2023-04-04T02:01:44;93209.13;;;8.98;100.00
15050;BME280;7622;42.724;23.250;2023-04-04T02:04:10;93202.75;;;9.09;100.00
15050;BME280;7622;42.724;23.250;2023-04-04T02:06:38;93208.09;;;9.07;100.00
15050;BME280;7622;42.724;23.250;2023-04-04T02:09:05;93214.91;;;9.08;100.00
15050;BME280;7622;42.724;23.250;2023-04-04T02:11:32;93215.50;;;9.19;100.00
15050;BME280;7622;42.724;23.250;2023-04-04T02:13:59;93216.47;;;9.18;100.00
15050;BME280;7622;42.724;23.250;2023-04-04T02:16:27;93214.16;;;9.23;100.00
15050;BME280;7622;42.724;23.250;2023-04-04T02:18:54;93209.06;;;9.06;100.00
15050;BME280;7622;42.724;23.250;2023-04-04T02:21:21;93210.53;;;9.09;100.00
15050;BME280;7622;42.724;23.250;2023-04-04T02:23:49;93192.56;;;9.07;100.00
15050;BME280;7622;42.724;23.250;2023-04-04T02:26:16;93202.78;;;9.01;100.00
15050;BME280;7622;42.724;23.250;2023-04-04T02:28:43;93200.03;;;9.02;100.00
15050;BME280;7622;42.724;23.250;2023-04-04T02:31:10;93202.38;;;8.89;100.00
15050;BME280;7622;42.724;23.250;2023-04-04T02:33:38;93195.63;;;8.80;100.00
15050;BME280;7622;42.724;23.250;2023-04-04T02:36:05;93199.31;;;8.86;100.00
15050;BME280;7622;42.724;23.250;2023-04-04T02:38:32;93190.47;;;8.72;100.00
15050;BME280;7622;42.724;23.250;2023-04-04T02:40:58;93200.47;;;8.83;100.00
15050;BME280;7622;42.724;23.250;2023-04-04T02:43:25;93205.97;;;8.80;100.00
15050;BME280;7622;42.724;23.250;2023-04-04T02:45:52;93208.81;;;8.62;100.00
15050;BME280;7622;42.724;23.250;2023-04-04T02:48:19;93212.97;;;8.72;100.00
15050;BME280;7622;42.724;23.250;2023-04-04T02:50:47;93209.41;;;8.73;100.00
15050;BME280;7622;42.724;23.250;2023-04-04T02:53:14;93216.00;;;8.83;100.00
15050;BME280;7622;42.724;23.250;2023-04-04T02:55:41;93216.00;;;8.83;100.00
15050;BME280;7622;42.724;23.250;2023-04-04T02:58:08;93214.25;;;8.76;100.00
15050;BME280;7622;42.724;23.250;2023-04-04T03:00:35;93212.97;;;8.72;100.00
15050;BME280;7622;42.724;23.250;2023-04-04T03:03:01;93223.97;;;8.65;100.00
15050;BME280;7622;42.724;23.250;2023-04-04T03:05:28;93220.25;;;8.76;100.00
15050;BME280;7622;42.724;23.250;2023-04-04T03:07:58;93221.91;;;8.61;100.00
15050;BME280;7622;42.724;23.250;2023-04-04T03:10:26;93224.59;;;8.76;100.00
15050;BME280;7622;42.724;23.250;2023-04-04T03:12:54;93227.72;;;8.71;100.00
15050;BME280;7622;42.724;23.250;2023-04-04T03:15:21;93234.56;;;8.95;100.00
15050;BME280;7622;42.724;23.250;2023-04-04T03:17:47;93235.19;;;8.97;100.00
15050;BME280;7622;42.724;23.250;2023-04-04T03:20:14;93226.00;;;8.86;100.00
15050;BME280;7622;42.724;23.250;2023-04-04T03:22:41;93229.84;;;8.98;100.00
15050;BME280;7622;42.724;23.250;2023-04-04T03:25:09;93224.31;;;9.01;100.00
15050;BME280;7622;42.724;23.250;2023-04-04T03:27:37;93226.91;;;9.01;100.00
15050;BME280;7622;42.724;23.250;2023-04-04T03:30:05;93229.56;;;8.85;100.00
15050;BME280;7622;42.724;23.250;2023-04-04T03:32:32;93226.81;;;8.87;100.00
15050;BME280;7622;42.724;23.250;2023-04-04T03:34:59;93226.94;;;8.93;100.00
15050;BME280;7622;42.724;23.250;2023-04-04T03:37:26;93232.88;;;8.71;100.00
15050;BME280;7622;42.724;23.250;2023-04-04T03:39:54;93228.97;;;8.75;100.00
15050;BME280;7622;42.724;23.250;2023-04-04T03:42:22;93232.88;;;8.71;100.00
15050;BME280;7622;42.724;23.250;2023-04-04T03:44:49;93219.56;;;8.82;100.00
15050;BME280;7622;42.724;23.250;2023-04-04T03:47:16;93223.78;;;8.83;100.00
15050;BME280;7622;42.724;23.250;2023-04-04T03:49:43;93214.38;;;8.82;100.00
15050;BME280;7622;42.724;23.250;2023-04-04T03:52:10;93226.97;;;8.85;100.00
15050;BME280;7622;42.724;23.250;2023-04-04T03:54:37;93224.09;;;8.80;100.00
15050;BME280;7622;42.724;23.250;2023-04-04T03:57:04;93229.28;;;8.72;100.00
15050;BME280;7622;42.724;23.250;2023-04-04T03:59:32;93223.59;;;8.85;100.00
15050;BME280;7622;42.724;23.250;2023-04-04T04:01:59;93229.56;;;8.85;100.00
15050;BME280;7622;42.724;23.250;2023-04-04T04:04:25;93232.94;;;8.94;100.00
15050;BME280;7622;42.724;23.250;2023-04-04T04:06:52;93227.06;;;9.00;100.00
15050;BME280;7622;42.724;23.250;2023-04-04T04:09:19;93227.31;;;8.82;100.00
15050;BME280;7622;42.724;23.250;2023-04-04T04:11:46;93240.09;;;8.84;100.00
15050;BME280;7622;42.724;23.250;2023-04-04T04:14:12;93229.81;;;8.67;100.00
15050;BME280;7622;42.724;23.250;2023-04-04T04:16:41;93227.50;;;8.73;100.00
15050;BME280;7622;42.724;23.250;2023-04-04T04:19:07;93224.38;;;8.85;100.00
15050;BME280;7622;42.724;23.250;2023-04-04T04:21:35;93235.41;;;8.79;100.00
15050;BME280;7622;42.724;23.250;2023-04-04T04:24:02;93238.84;;;9.11;100.00
15050;BME280;7622;42.724;23.250;2023-04-04T04:26:28;93230.63;;;8.99;100.00
15050;BME280;7622;42.724;23.250;2023-04-04T04:28:55;93222.25;;;8.97;100.00
15050;BME280;7622;42.724;23.250;2023-04-04T04:31:22;93242.72;;;9.15;100.00
15050;BME280;7622;42.724;23.250;2023-04-04T04:33:50;93247.59;;;9.09;100.00
15050;BME280;7622;42.724;23.250;2023-04-04T04:36:17;93253.91;;;9.07;100.00
15050;BME280;7622;42.724;23.250;2023-04-04T04:38:44;93262.22;;;8.94;100.00
15050;BME280;7622;42.724;23.250;2023-04-04T04:41:11;93262.81;;;9.13;100.00
15050;BME280;7622;42.724;23.250;2023-04-04T04:43:38;93254.84;;;9.14;100.00
15050;BME280;7622;42.724;23.250;2023-04-04T04:46:05;93267.69;;;8.99;100.00
15050;BME280;7622;42.724;23.250;2023-04-04T04:48:33;93268.59;;;9.15;100.00
15050;BME280;7622;42.724;23.250;2023-04-04T04:51:01;93268.13;;;9.19;100.00
15050;BME280;7622;42.724;23.250;2023-04-04T04:53:28;93272.16;;;9.14;100.00
15050;BME280;7622;42.724;23.250;2023-04-04T04:55:55;93280.25;;;9.19;100.00
15050;BME280;7622;42.724;23.250;2023-04-04T04:58:22;93277.31;;;9.22;100.00
15050;BME280;7622;42.724;23.250;2023-04-04T05:00:49;93280.56;;;9.24;100.00
15050;BME280;7622;42.724;23.250;2023-04-04T05:03:19;93284.13;;;9.23;100.00
15050;BME280;7622;42.724;23.250;2023-04-04T05:05:46;93283.19;;;9.16;100.00
15050;BME280;7622;42.724;23.250;2023-04-04T05:08:14;93282.03;;;9.18;100.00
15050;BME280;7622;42.724;23.250;2023-04-04T05:10:41;93287.84;;;9.20;100.00
15050;BME280;7622;42.724;23.250;2023-04-04T05:13:08;93285.78;;;9.07;100.00
15050;BME280;7622;42.724;23.250;2023-04-04T05:15:35;93290.91;;;9.24;100.00
15050;BME280;7622;42.724;23.250;2023-04-04T05:18:02;93287.34;;;9.25;100.00
15050;BME280;7622;42.724;23.250;2023-04-04T05:20:29;93297.91;;;9.15;100.00
15050;BME280;7622;42.724;23.250;2023-04-04T05:22:56;93296.47;;;9.13;100.00
15050;BME280;7622;42.724;23.250;2023-04-04T05:25:24;93292.06;;;9.21;100.00
15050;BME280;7622;42.724;23.250;2023-04-04T05:27:51;93298.66;;;9.32;100.00
15050;BME280;7622;42.724;23.250;2023-04-04T05:30:20;93304.25;;;9.43;100.00
15050;BME280;7622;42.724;23.250;2023-04-04T05:32:46;93300.03;;;9.42;100.00
15050;BME280;7622;42.724;23.250;2023-04-04T05:35:13;93299.91;;;9.36;100.00
15050;BME280;7622;42.724;23.250;2023-04-04T05:37:40;93309.63;;;9.34;100.00
15050;BME280;7622;42.724;23.250;2023-04-04T05:40:08;93314.84;;;9.65;100.00
15050;BME280;7622;42.724;23.250;2023-04-04T05:42:36;93314.78;;;9.73;100.00
15050;BME280;7622;42.724;23.250;2023-04-04T05:45:04;93320.63;;;9.75;100.00
15050;BME280;7622;42.724;23.250;2023-04-04T05:47:31;93320.75;;;9.81;100.00
15050;BME280;7622;42.724;23.250;2023-04-04T05:49:58;93322.97;;;9.84;100.00
15050;BME280;7622;42.724;23.250;2023-04-04T05:52:25;93324.63;;;9.77;100.00
15050;BME280;7622;42.724;23.250;2023-04-04T05:54:52;93325.69;;;9.91;100.00
15050;BME280;7622;42.724;23.250;2023-04-04T05:57:19;93326.25;;;9.78;100.00
15050;BME280;7622;42.724;23.250;2023-04-04T05:59:47;93319.72;;;9.82;100.00
15050;BME280;7622;42.724;23.250;2023-04-04T06:02:14;93324.88;;;9.91;100.00
15050;BME280;7622;42.724;23.250;2023-04-04T06:04:40;93326.84;;;9.88;100.00
15050;BME280;7622;42.724;23.250;2023-04-04T06:07:09;93325.81;;;9.98;100.00
15050;BME280;7622;42.724;23.250;2023-04-04T06:09:36;93328.44;;;9.89;100.00
15050;BME280;7622;42.724;23.250;2023-04-04T06:12:03;93334.03;;;9.78;100.00
15050;BME280;7622;42.724;23.250;2023-04-04T06:14:30;93332.06;;;9.19;100.00
15050;BME280;7622;42.724;23.250;2023-04-04T06:16:58;93338.81;;;8.73;100.00
15050;BME280;7622;42.724;23.250;2023-04-04T06:19:25;93341.09;;;8.11;100.00
15050;BME280;7622;42.724;23.250;2023-04-04T06:21:51;93282.41;;;7.46;100.00
15050;BME280;7622;42.724;23.250;2023-04-04T06:24:18;93342.81;;;7.62;100.00
15050;BME280;7622;42.724;23.250;2023-04-04T06:26:45;93349.19;;;7.33;100.00
15050;BME280;7622;42.724;23.250;2023-04-04T06:29:15;93350.97;;;6.99;100.00
15050;BME280;7622;42.724;23.250;2023-04-04T06:31:42;93361.25;;;6.83;100.00
15050;BME280;7622;42.724;23.250;2023-04-04T06:34:11;93378.97;;;6.78;100.00
15050;BME280;7622;42.724;23.250;2023-04-04T06:36:37;93369.50;;;6.60;100.00
15050;BME280;7622;42.724;23.250;2023-04-04T06:39:04;93375.72;;;6.50;100.00
15050;BME280;7622;42.724;23.250;2023-04-04T06:41:31;93387.13;;;6.29;100.00
15050;BME280;7622;42.724;23.250;2023-04-04T06:43:58;93391.28;;;6.05;100.00
15050;BME280;7622;42.724;23.250;2023-04-04T06:46:25;93393.41;;;6.27;100.00
15050;BME280;7622;42.724;23.250;2023-04-04T06:48:52;93396.28;;;6.24;100.00
15050;BME280;7622;42.724;23.250;2023-04-04T06:51:21;93403.94;;;6.16;100.00
15050;BME280;7622;42.724;23.250;2023-04-04T06:53:47;93407.56;;;6.05;100.00
15050;BME280;7622;42.724;23.250;2023-04-04T06:56:14;93397.63;;;5.92;100.00
15050;BME280;7622;42.724;23.250;2023-04-04T06:58:41;93411.75;;;5.88;100.00
15050;BME280;7622;42.724;23.250;2023-04-04T07:01:08;93404.88;;;5.79;100.00
15050;BME280;7622;42.724;23.250;2023-04-04T07:03:36;93422.53;;;5.74;100.00
15050;BME280;7622;42.724;23.250;2023-04-04T07:06:03;93337.31;;;5.23;100.00
15050;BME280;7622;42.724;23.250;2023-04-04T07:08:31;93436.41;;;5.46;100.00
15050;BME280;7622;42.724;23.250;2023-04-04T07:10:58;93443.94;;;5.47;100.00
15050;BME280;7622;42.724;23.250;2023-04-04T07:13:25;93446.13;;;5.52;100.00
15050;BME280;7622;42.724;23.250;2023-04-04T07:15:52;93462.28;;;5.44;100.00
15050;BME280;7622;42.724;23.250;2023-04-04T07:18:19;93466.25;;;5.39;100.00
15050;BME280;7622;42.724;23.250;2023-04-04T07:20:46;93475.28;;;5.43;100.00
15050;BME280;7622;42.724;23.250;2023-04-04T07:23:13;93475.66;;;5.48;100.00
15050;BME280;7622;42.724;23.250;2023-04-04T07:25:42;93479.50;;;5.44;100.00
15050;BME280;7622;42.724;23.250;2023-04-04T07:28:09;93490.59;;;5.44;100.00
15050;BME280;7622;42.724;23.250;2023-04-04T07:30:36;93497.66;;;5.33;100.00
15050;BME280;7622;42.724;23.250;2023-04-04T07:33:03;93498.91;;;5.29;100.00
15050;BME280;7622;42.724;23.250;2023-04-04T07:35:30;93511.78;;;5.29;100.00
15050;BME280;7622;42.724;23.250;2023-04-04T07:37:57;93503.69;;;5.24;100.00
15050;BME280;7622;42.724;23.250;2023-04-04T07:40:23;93506.94;;;5.16;100.00
15050;BME280;7622;42.724;23.250;2023-04-04T07:42:51;93522.28;;;4.98;100.00
15050;BME280;7622;42.724;23.250;2023-04-04T07:45:19;93534.63;;;5.04;100.00
15050;BME280;7622;42.724;23.250;2023-04-04T07:47:47;93532.03;;;5.04;100.00
15050;BME280;7622;42.724;23.250;2023-04-04T07:50:14;93530.84;;;4.89;100.00
15050;BME280;7622;42.724;23.250;2023-04-04T07:52:43;93532.97;;;5.03;100.00
15050;BME280;7622;42.724;23.250;2023-04-04T07:55:13;93531.06;;;5.05;100.00
15050;BME280;7622;42.724;23.250;2023-04-04T07:57:40;93523.50;;;4.94;100.00
15050;BME280;7622;42.724;23.250;2023-04-04T08:00:10;93523.00;;;4.81;100.00
15050;BME280;7622;42.724;23.250;2023-04-04T08:02:37;93533.94;;;4.93;100.00
15050;BME280;7622;42.724;23.250;2023-04-04T08:05:05;93533.13;;;4.92;100.00
15050;BME280;7622;42.724;23.250;2023-04-04T08:07:32;93525.91;;;5.05;100.00
15050;BME280;7622;42.724;23.250;2023-04-04T08:09:59;93531.06;;;5.05;100.00
15050;BME280;7622;42.724;23.250;2023-04-04T08:12:26;93536.47;;;5.12;100.00
15050;BME280;7622;42.724;23.250;2023-04-04T08:14:52;93541.66;;;5.02;100.00
15050;BME280;7622;42.724;23.250;2023-04-04T08:17:21;93542.97;;;5.06;100.00
15050;BME280;7622;42.724;23.250;2023-04-04T08:19:49;93542.97;;;5.16;100.00
15050;BME280;7622;42.724;23.250;2023-04-04T08:22:15;93540.66;;;5.23;100.00
15050;BME280;7622;42.724;23.250;2023-04-04T08:24:42;93547.59;;;5.03;100.00
15050;BME280;7622;42.724;23.250;2023-04-04T08:27:09;93561.41;;;4.92;100.00
15050;BME280;7622;42.724;23.250;2023-04-04T08:29:36;93562.91;;;4.85;100.00
15050;BME280;7622;42.724;23.250;2023-04-04T08:32:03;93582.56;;;4.96;100.00
15050;BME280;7622;42.724;23.250;2023-04-04T08:34:32;93572.25;;;4.96;100.00
15050;BME280;7622;42.724;23.250;2023-04-04T08:36:59;93582.16;;;4.91;100.00
15050;BME280;7622;42.724;23.250;2023-04-04T08:39:25;93585.78;;;4.79;100.00
15050;BME280;7622;42.724;23.250;2023-04-04T08:42:05;93585.00;;;4.68;100.00
15050;BME280;7622;42.724;23.250;2023-04-04T08:44:33;93507.84;;;4.20;100.00
15050;BME280;7622;42.724;23.250;2023-04-04T08:47:02;93580.38;;;5.01;100.00
15050;BME280;7622;42.724;23.250;2023-04-04T08:49:34;93579.28;;;4.84;100.00
15050;BME280;7622;42.724;23.250;2023-04-04T08:52:04;93579.28;;;4.84;100.00
15050;BME280;7622;42.724;23.250;2023-04-04T08:54:32;93585.22;;;5.13;100.00
15050;BME280;7622;42.724;23.250;2023-04-04T08:57:01;93588.63;;;4.85;100.00
15050;BME280;7622;42.724;23.250;2023-04-04T08:59:30;93584.16;;;4.78;100.00
15050;BME280;7622;42.724;23.250;2023-04-04T09:02:04;93586.34;;;4.82;100.00
15050;BME280;7622;42.724;23.250;2023-04-04T09:04:45;93603.41;;;5.02;100.00
15050;BME280;7622;42.724;23.250;2023-04-04T09:07:15;93607.88;;;4.91;100.00
15050;BME280;7622;42.724;23.250;2023-04-04T09:09:43;93611.78;;;5.14;100.00
15050;BME280;7622;42.724;23.250;2023-04-04T09:12:13;93530.47;;;5.31;100.00
15050;BME280;7622;42.724;23.250;2023-04-04T09:14:42;93611.25;;;5.76;100.00
15050;BME280;7622;42.724;23.250;2023-04-04T09:17:09;93612.31;;;5.37;100.00
15050;BME280;7622;42.724;23.250;2023-04-04T09:19:36;93615.31;;;5.32;100.00
15050;BME280;7622;42.724;23.250;2023-04-04T09:22:07;93616.25;;;5.22;100.00
15050;BME280;7622;42.724;23.250;2023-04-04T09:24:41;93608.91;;;5.27;100.00
15050;BME280;7622;42.724;23.250;2023-04-04T09:27:11;93614.47;;;5.12;100.00
15050;BME280;7622;42.724;23.250;2023-04-04T09:29:40;93611.81;;;5.04;100.00
15050;BME280;7622;42.724;23.250;2023-04-04T09:32:08;93616.13;;;5.13;100.00
15050;BME280;7622;42.724;23.250;2023-04-04T09:34:35;93623.72;;;4.96;100.00
15050;BME280;7622;42.724;23.250;2023-04-04T09:37:03;93634.00;;;5.05;100.00
15050;BME280;7622;42.724;23.250;2023-04-04T09:39:32;93626.16;;;4.97;100.00
15050;BME280;7622;42.724;23.250;2023-04-04T09:42:00;93619.94;;;4.90;100.00
15050;BME280;7622;42.724;23.250;2023-04-04T09:44:27;93635.63;;;4.87;100.00
15050;BME280;7622;42.724;23.250;2023-04-04T09:47:22;93625.63;;;5.03;100.00
15050;BME280;7622;42.724;23.250;2023-04-04T09:49:52;93631.31;;;4.97;100.00
15050;BME280;7622;42.724;23.250;2023-04-04T09:52:20;93636.44;;;5.17;100.00
15050;BME280;7622;42.724;23.250;2023-04-04T09:54:58;93634.81;;;5.06;100.00
15050;BME280;7622;42.724;23.250;2023-04-04T09:57:27;93646.59;;;5.08;100.00
15050;BME280;7622;42.724;23.250;2023-04-04T09:59:58;93640.75;;;5.06;100.00
15050;BME280;7622;42.724;23.250;2023-04-04T10:02:26;93637.50;;;4.85;100.00
15050;BME280;7622;42.724;23.250;2023-04-04T10:04:53;93636.69;;;4.85;100.00
15050;BME280;7622;42.724;23.250;2023-04-04T10:07:21;93643.47;;;4.86;100.00
15050;BME280;7622;42.724;23.250;2023-04-04T10:09:49;93631.16;;;4.89;100.00
15050;BME280;7622;42.724;23.250;2023-04-04T10:12:20;93623.16;;;4.73;100.00
15050;BME280;7622;42.724;23.250;2023-04-04T10:14:48;93563.47;;;4.41;100.00
15050;BME280;7622;42.724;23.250;2023-04-04T10:17:15;93641.03;;;4.94;100.00
15050;BME280;7622;42.724;23.250;2023-04-04T10:19:42;93649.84;;;4.82;100.00
15050;BME280;7622;42.724;23.250;2023-04-04T10:22:10;93647.66;;;4.87;100.00
15050;BME280;7622;42.724;23.250;2023-04-04T10:24:37;93653.91;;;4.94;100.00
15050;BME280;7622;42.724;23.250;2023-04-04T10:27:03;93651.03;;;4.78;100.00
15050;BME280;7622;42.724;23.250;2023-04-04T10:29:32;93652.28;;;4.83;100.00
15050;BME280;7622;42.724;23.250;2023-04-04T10:32:01;93657.84;;;4.88;100.00
15050;BME280;7622;42.724;23.250;2023-04-04T10:34:37;93655.25;;;4.88;100.00
15050;BME280;7622;42.724;23.250;2023-04-04T10:37:08;93663.22;;;4.85;100.00
15050;BME280;7622;42.724;23.250;2023-04-04T10:39:43;93670.72;;;4.98;100.00
15050;BME280;7622;42.724;23.250;2023-04-04T10:42:14;93669.22;;;4.95;100.00
15050;BME280;7622;42.724;23.250;2023-04-04T10:44:44;93672.72;;;5.13;100.00
15050;BME280;7622;42.724;23.250;2023-04-04T10:47:14;93680.31;;;5.05;100.00
15050;BME280;7622;42.724;23.250;2023-04-04T10:49:43;93676.78;;;5.06;100.00
15050;BME280;7622;42.724;23.250;2023-04-04T10:52:11;93685.75;;;5.02;100.00
15050;BME280;7622;42.724;23.250;2023-04-04T10:54:39;93685.47;;;4.96;100.00
15050;BME280;7622;42.724;23.250;2023-04-04T10:57:08;93687.91;;;4.97;100.00
15050;BME280;7622;42.724;23.250;2023-04-04T10:59:54;93682.22;;;5.03;100.00
15050;BME280;7622;42.724;23.250;2023-04-04T11:02:42;93687.91;;;5.07;100.00
15050;BME280;7622;42.724;23.250;2023-04-04T11:05:10;93703.72;;;4.83;100.00
15050;BME280;7622;42.724;23.250;2023-04-04T11:07:38;93702.50;;;4.87;100.00
15050;BME280;7622;42.724;23.250;2023-04-04T11:10:12;93702.91;;;4.83;100.00
15050;BME280;7622;42.724;23.250;2023-04-04T11:12:44;93703.03;;;4.81;100.00
15050;BME280;7622;42.724;23.250;2023-04-04T11:15:13;93697.09;;;4.90;100.00
15050;BME280;7622;42.724;23.250;2023-04-04T11:20:31;93703.81;;;4.72;100.00
15050;BME280;7622;42.724;23.250;2023-04-04T11:23:07;93711.69;;;4.80;100.00
15050;BME280;7622;42.724;23.250;2023-04-04T11:25:36;93707.91;;;4.84;100.00
15050;BME280;7622;42.724;23.250;2023-04-04T11:28:06;93713.91;;;4.94;100.00
15050;BME280;7622;42.724;23.250;2023-04-04T11:30:42;93719.44;;;4.99;100.00
15050;BME280;7622;42.724;23.250;2023-04-04T11:33:25;93718.59;;;4.80;100.00
15050;BME280;7622;42.724;23.250;2023-04-04T11:36:03;93716.84;;;4.80;100.00
15050;BME280;7622;42.724;23.250;2023-04-04T11:38:30;93730.25;;;4.74;100.00
15050;BME280;7622;42.724;23.250;2023-04-04T11:40:58;93719.25;;;4.72;100.00
15050;BME280;7622;42.724;23.250;2023-04-04T11:43:25;93721.75;;;4.83;100.00
15050;BME280;7622;42.724;23.250;2023-04-04T11:46:04;93720.56;;;4.57;100.00
15050;BME280;7622;42.724;23.250;2023-04-04T11:48:32;93721.19;;;4.80;100.00
15050;BME280;7622;42.724;23.250;2023-04-04T11:51:00;93714.94;;;4.63;100.00
15050;BME280;7622;42.724;23.250;2023-04-04T11:53:30;93721.81;;;4.62;100.00
15050;BME280;7622;42.724;23.250;2023-04-04T11:55:57;93717.56;;;4.52;100.00
15050;BME280;7622;42.724;23.250;2023-04-04T11:58:25;93725.34;;;4.71;100.00
15050;BME280;7622;42.724;23.250;2023-04-04T12:00:52;93724.00;;;4.67;100.00
15050;BME280;7622;42.724;23.250;2023-04-04T12:03:20;93726.81;;;4.64;100.00
15050;BME280;7622;42.724;23.250;2023-04-04T12:05:48;93723.44;;;4.63;100.00
15050;BME280;7622;42.724;23.250;2023-04-04T12:08:15;93719.47;;;4.50;100.00
15050;BME280;7622;42.724;23.250;2023-04-04T12:10:42;93728.44;;;4.65;100.00
15050;BME280;7622;42.724;23.250;2023-04-04T12:13:10;93723.53;;;4.52;100.00
15050;BME280;7622;42.724;23.250;2023-04-04T12:15:37;93712.66;;;4.39;100.00
15050;BME280;7622;42.724;23.250;2023-04-04T12:18:05;93728.91;;;4.40;100.00
15050;BME280;7622;42.724;23.250;2023-04-04T12:20:36;93735.69;;;4.41;100.00
15050;BME280;7622;42.724;23.250;2023-04-04T12:23:03;93725.91;;;4.34;100.00
15050;BME280;7622;42.724;23.250;2023-04-04T12:25:30;93742.19;;;4.45;100.00
15050;BME280;7622;42.724;23.250;2023-04-04T12:27:58;93735.63;;;4.31;100.00
15050;BME280;7622;42.724;23.250;2023-04-04T12:30:28;93733.69;;;4.23;100.00
15050;BME280;7622;42.724;23.250;2023-04-04T12:32:55;93736.38;;;4.12;100.00
15050;BME280;7622;42.724;23.250;2023-04-04T12:35:22;93746.22;;;4.38;100.00
15050;BME280;7622;42.724;23.250;2023-04-04T12:38:02;93737.72;;;4.16;100.00
15050;BME280;7622;42.724;23.250;2023-04-04T12:40:34;93735.50;;;4.02;100.00
15050;BME280;7622;42.724;23.250;2023-04-04T12:43:05;93738.09;;;4.32;100.00
15050;BME280;7622;42.724;23.250;2023-04-04T12:45:36;93739.88;;;4.11;100.00
15050;BME280;7622;42.724;23.250;2023-04-04T12:48:09;93748.56;;;4.20;100.00
15050;BME280;7622;42.724;23.250;2023-04-04T12:50:48;93759.06;;;4.07;100.00
15050;BME280;7622;42.724;23.250;2023-04-04T12:53:20;93758.38;;;4.05;100.00
15050;BME280;7622;42.724;23.250;2023-04-04T12:55:48;93756.91;;;4.12;100.00
15050;BME280;7622;42.724;23.250;2023-04-04T12:58:15;93757.75;;;4.22;100.00
15050;BME280;7622;42.724;23.250;2023-04-04T13:00:43;93760.13;;;4.05;100.00
15050;BME280;7622;42.724;23.250;2023-04-04T13:03:11;93762.19;;;3.90;100.00
15050;BME280;7622;42.724;23.250;2023-04-04T13:05:41;93759.94;;;3.96;100.00
15050;BME280;7622;42.724;23.250;2023-04-04T13:08:08;93768.03;;;3.92;100.00